sensor_id;sensor_type;location;lat;lon;timestamp;temperature;humidity
18456;DHT22;9357;49.900;8.208;2023-06-22T00:00:51;23.60;99.90
18456;DHT22;9357;49.900;8.208;2023-06-22T00:02:24;23.60;99.90
18456;DHT22;9357;49.900;8.208;2023-06-22T00:03:56;23.70;99.90
18456;DHT22;9357;49.900;8.208;2023-06-22T00:05:28;23.70;99.90
18456;DHT22;9357;49.900;8.208;2023-06-22T00:07:01;23.70;99.90
18456;DHT22;9357;49.900;8.208;2023-06-22T00:08:35;23.80;99.90
18456;DHT22;9357;49.900;8.208;2023-06-22T00:10:08;23.80;99.90
18456;DHT22;9357;49.900;8.208;2023-06-22T00:11:40;23.90;99.90
18456;DHT22;9357;49.900;8.208;2023-06-22T00:13:13;23.80;99.90
18456;DHT22;9357;49.900;8.208;2023-06-22T00:14:47;23.90;99.90
18456;DHT22;9357;49.900;8.208;2023-06-22T00:16:20;23.90;99.90
18456;DHT22;9357;49.900;8.208;2023-06-22T00:17:52;23.90;99.90
18456;DHT22;9357;49.900;8.208;2023-06-22T00:19:25;23.90;99.90
18456;DHT22;9357;49.900;8.208;2023-06-22T00:20:58;24.00;99.90
18456;DHT22;9357;49.900;8.208;2023-06-22T00:22:31;24.00;99.90
18456;DHT22;9357;49.900;8.208;2023-06-22T00:24:11;24.00;99.90
18456;DHT22;9357;49.900;8.208;2023-06-22T00:25:44;24.00;99.90
18456;DHT22;9357;49.900;8.208;2023-06-22T00:27:16;24.00;99.90
18456;DHT22;9357;49.900;8.208;2023-06-22T00:28:49;24.00;99.90
18456;DHT22;9357;49.900;8.208;2023-06-22T00:30:22;24.00;99.90
18456;DHT22;9357;49.900;8.208;2023-06-22T00:31:54;24.00;99.90
18456;DHT22;9357;49.900;8.208;2023-06-22T00:33:27;24.00;99.90
18456;DHT22;9357;49.900;8.208;2023-06-22T00:35:00;23.90;99.90
18456;DHT22;9357;49.900;8.208;2023-06-22T00:36:33;23.90;99.90
18456;DHT22;9357;49.900;8.208;2023-06-22T00:38:06;23.80;99.90
18456;DHT22;9357;49.900;8.208;2023-06-22T00:39:41;23.70;99.90
18456;DHT22;9357;49.900;8.208;2023-06-22T00:41:14;23.70;99.90
18456;DHT22;9357;49.900;8.208;2023-06-22T00:42:46;23.70;99.90
18456;DHT22;9357;49.900;8.208;2023-06-22T00:44:19;23.70;99.90
18456;DHT22;9357;49.900;8.208;2023-06-22T00:45:52;23.80;99.90
18456;DHT22;9357;49.900;8.208;2023-06-22T00:47:25;23.80;99.90
18456;DHT22;9357;49.900;8.208;2023-06-22T00:48:58;23.80;99.90
18456;DHT22;9357;49.900;8.208;2023-06-22T00:50:32;23.90;99.90
18456;DHT22;9357;49.900;8.208;2023-06-22T00:52:06;23.90;99.90
18456;DHT22;9357;49.900;8.208;2023-06-22T00:53:40;24.00;99.90
18456;DHT22;9357;49.900;8.208;2023-06-22T00:55:16;24.00;99.90
18456;DHT22;9357;49.900;8.208;2023-06-22T00:56:49;24.00;99.90
18456;DHT22;9357;49.900;8.208;2023-06-22T00:58:23;24.00;99.90
18456;DHT22;9357;49.900;8.208;2023-06-22T00:59:56;23.90;99.90
18456;DHT22;9357;49.900;8.208;2023-06-22T01:01:29;23.90;99.90
18456;DHT22;9357;49.900;8.208;2023-06-22T01:03:02;23.80;99.90
18456;DHT22;9357;49.900;8.208;2023-06-22T01:04:36;23.70;99.90
18456;DHT22;9357;49.900;8.208;2023-06-22T01:06:15;23.50;99.90
18456;DHT22;9357;49.900;8.208;2023-06-22T01:08:03;23.30;99.90
18456;DHT22;9357;49.900;8.208;2023-06-22T01:09:45;23.10;99.90
18456;DHT22;9357;49.900;8.208;2023-06-22T01:11:23;23.00;99.90
18456;DHT22;9357;49.900;8.208;2023-06-22T01:13:02;22.90;99.90
18456;DHT22;9357;49.900;8.208;2023-06-22T01:14:39;22.90;99.90
18456;DHT22;9357;49.900;8.208;2023-06-22T01:16:17;22.90;99.90
18456;DHT22;9357;49.900;8.208;2023-06-22T01:17:52;22.80;99.90
18456;DHT22;9357;49.900;8.208;2023-06-22T01:19:37;22.80;99.90
18456;DHT22;9357;49.900;8.208;2023-06-22T01:21:16;22.80;99.90
18456;DHT22;9357;49.900;8.208;2023-06-22T01:23:02;22.70;99.90
18456;DHT22;9357;49.900;8.208;2023-06-22T01:24:45;22.70;99.90
18456;DHT22;9357;49.900;8.208;2023-06-22T01:26:25;22.70;99.90
18456;DHT22;9357;49.900;8.208;2023-06-22T01:28:05;22.70;99.90
18456;DHT22;9357;49.900;8.208;2023-06-22T01:29:48;22.70;99.90
18456;DHT22;9357;49.900;8.208;2023-06-22T01:31:25;22.70;99.90
18456;DHT22;9357;49.900;8.208;2023-06-22T01:32:59;22.80;99.90
18456;DHT22;9357;49.900;8.208;2023-06-22T01:34:33;22.80;99.90
18456;DHT22;9357;49.900;8.208;2023-06-22T01:36:07;22.90;99.90
18456;DHT22;9357;49.900;8.208;2023-06-22T01:37:39;22.90;99.90
18456;DHT22;9357;49.900;8.208;2023-06-22T01:39:13;23.00;99.90
18456;DHT22;9357;49.900;8.208;2023-06-22T01:40:46;23.00;99.90
18456;DHT22;9357;49.900;8.208;2023-06-22T01:42:19;23.00;99.90
18456;DHT22;9357;49.900;8.208;2023-06-22T01:43:53;23.00;99.90
18456;DHT22;9357;49.900;8.208;2023-06-22T01:45:27;23.00;99.90
18456;DHT22;9357;49.900;8.208;2023-06-22T01:47:00;23.00;99.90
18456;DHT22;9357;49.900;8.208;2023-06-22T01:48:33;23.00;99.90
18456;DHT22;9357;49.900;8.208;2023-06-22T01:50:06;22.90;99.90
18456;DHT22;9357;49.900;8.208;2023-06-22T01:51:39;22.80;99.90
18456;DHT22;9357;49.900;8.208;2023-06-22T01:53:12;22.80;99.90
18456;DHT22;9357;49.900;8.208;2023-06-22T01:54:44;22.80;99.90
18456;DHT22;9357;49.900;8.208;2023-06-22T01:56:17;22.80;99.90
18456;DHT22;9357;49.900;8.208;2023-06-22T01:57:50;22.80;99.90
18456;DHT22;9357;49.900;8.208;2023-06-22T01:59:26;22.80;99.90
18456;DHT22;9357;49.900;8.208;2023-06-22T02:01:12;22.90;99.90
18456;DHT22;9357;49.900;8.208;2023-06-22T02:02:51;22.90;99.90
18456;DHT22;9357;49.900;8.208;2023-06-22T02:04:32;22.90;99.90
18456;DHT22;9357;49.900;8.208;2023-06-22T02:06:08;22.90;99.90
18456;DHT22;9357;49.900;8.208;2023-06-22T02:07:44;22.90;99.90
18456;DHT22;9357;49.900;8.208;2023-06-22T02:09:19;22.80;99.90
18456;DHT22;9357;49.900;8.208;2023-06-22T02:10:54;22.70;99.90
18456;DHT22;9357;49.900;8.208;2023-06-22T02:12:28;22.50;99.90
18456;DHT22;9357;49.900;8.208;2023-06-22T02:14:01;22.40;99.90
18456;DHT22;9357;49.900;8.208;2023-06-22T02:15:34;22.30;99.90
18456;DHT22;9357;49.900;8.208;2023-06-22T02:17:09;22.20;99.90
18456;DHT22;9357;49.900;8.208;2023-06-22T02:18:46;22.10;99.90
18456;DHT22;9357;49.900;8.208;2023-06-22T02:20:19;22.10;99.90
18456;DHT22;9357;49.900;8.208;2023-06-22T02:21:51;22.10;99.90
18456;DHT22;9357;49.900;8.208;2023-06-22T02:23:24;22.20;99.90
18456;DHT22;9357;49.900;8.208;2023-06-22T02:24:57;22.20;99.90
18456;DHT22;9357;49.900;8.208;2023-06-22T02:26:30;22.20;99.90
18456;DHT22;9357;49.900;8.208;2023-06-22T02:28:04;22.30;99.90
18456;DHT22;9357;49.900;8.208;2023-06-22T02:29:36;22.40;99.90
18456;DHT22;9357;49.900;8.208;2023-06-22T02:31:09;22.50;99.90
18456;DHT22;9357;49.900;8.208;2023-06-22T02:32:43;22.50;99.90
18456;DHT22;9357;49.900;8.208;2023-06-22T02:34:16;22.50;99.90
18456;DHT22;9357;49.900;8.208;2023-06-22T02:35:50;22.50;99.90
18456;DHT22;9357;49.900;8.208;2023-06-22T02:37:23;22.50;99.90
18456;DHT22;9357;49.900;8.208;2023-06-22T02:38:58;22.40;99.90
18456;DHT22;9357;49.900;8.208;2023-06-22T02:40:32;22.40;99.90
18456;DHT22;9357;49.900;8.208;2023-06-22T02:42:05;22.30;99.90
18456;DHT22;9357;49.900;8.208;2023-06-22T02:43:38;22.30;99.90
18456;DHT22;9357;49.900;8.208;2023-06-22T02:45:10;22.30;99.90
18456;DHT22;9357;49.900;8.208;2023-06-22T02:46:43;22.30;99.90
18456;DHT22;9357;49.900;8.208;2023-06-22T02:48:17;22.20;99.90
18456;DHT22;9357;49.900;8.208;2023-06-22T02:49:50;22.20;99.90
18456;DHT22;9357;49.900;8.208;2023-06-22T02:51:23;22.20;99.90
18456;DHT22;9357;49.900;8.208;2023-06-22T02:52:55;22.20;99.90
18456;DHT22;9357;49.900;8.208;2023-06-22T02:54:29;22.20;99.90
18456;DHT22;9357;49.900;8.208;2023-06-22T02:56:02;22.20;99.90
18456;DHT22;9357;49.900;8.208;2023-06-22T02:57:36;22.10;99.90
18456;DHT22;9357;49.900;8.208;2023-06-22T02:59:09;22.10;99.90
18456;DHT22;9357;49.900;8.208;2023-06-22T03:00:42;22.10;99.90
18456;DHT22;9357;49.900;8.208;2023-06-22T03:02:15;22.10;99.90
18456;DHT22;9357;49.900;8.208;2023-06-22T03:03:48;22.10;99.90
18456;DHT22;9357;49.900;8.208;2023-06-22T03:05:21;22.10;99.90
18456;DHT22;9357;49.900;8.208;2023-06-22T03:06:54;22.20;99.90
18456;DHT22;9357;49.900;8.208;2023-06-22T03:08:27;22.20;99.90
18456;DHT22;9357;49.900;8.208;2023-06-22T03:10:00;22.30;99.90
18456;DHT22;9357;49.900;8.208;2023-06-22T03:11:33;22.30;99.90
18456;DHT22;9357;49.900;8.208;2023-06-22T03:13:06;22.30;99.90
18456;DHT22;9357;49.900;8.208;2023-06-22T03:14:39;22.40;99.90
18456;DHT22;9357;49.900;8.208;2023-06-22T03:16:12;22.40;99.90
18456;DHT22;9357;49.900;8.208;2023-06-22T03:17:44;22.40;99.90
18456;DHT22;9357;49.900;8.208;2023-06-22T03:19:19;22.40;99.90
18456;DHT22;9357;49.900;8.208;2023-06-22T03:20:53;22.40;99.90
18456;DHT22;9357;49.900;8.208;2023-06-22T03:22:26;22.40;99.90
18456;DHT22;9357;49.900;8.208;2023-06-22T03:23:57;22.30;99.90
18456;DHT22;9357;49.900;8.208;2023-06-22T03:25:30;22.20;99.90
18456;DHT22;9357;49.900;8.208;2023-06-22T03:27:03;22.20;99.90
18456;DHT22;9357;49.900;8.208;2023-06-22T03:28:37;22.10;99.90
18456;DHT22;9357;49.900;8.208;2023-06-22T03:30:11;21.90;99.90
18456;DHT22;9357;49.900;8.208;2023-06-22T03:31:44;21.90;99.90
18456;DHT22;9357;49.900;8.208;2023-06-22T03:33:17;21.80;99.90
18456;DHT22;9357;49.900;8.208;2023-06-22T03:34:51;21.80;99.90
18456;DHT22;9357;49.900;8.208;2023-06-22T03:36:24;21.80;99.90
18456;DHT22;9357;49.900;8.208;2023-06-22T03:37:56;21.80;99.90
18456;DHT22;9357;49.900;8.208;2023-06-22T03:39:29;21.80;99.90
18456;DHT22;9357;49.900;8.208;2023-06-22T03:41:02;21.80;99.90
18456;DHT22;9357;49.900;8.208;2023-06-22T03:42:35;21.80;99.90
18456;DHT22;9357;49.900;8.208;2023-06-22T03:44:08;21.80;99.90
18456;DHT22;9357;49.900;8.208;2023-06-22T03:45:43;21.80;99.90
18456;DHT22;9357;49.900;8.208;2023-06-22T03:47:17;21.70;99.90
18456;DHT22;9357;49.900;8.208;2023-06-22T03:48:50;21.70;99.90
18456;DHT22;9357;49.900;8.208;2023-06-22T03:50:24;21.70;99.90
18456;DHT22;9357;49.900;8.208;2023-06-22T03:51:57;21.70;99.90
18456;DHT22;9357;49.900;8.208;2023-06-22T03:53:29;21.70;99.90
18456;DHT22;9357;49.900;8.208;2023-06-22T03:55:01;21.70;99.90
18456;DHT22;9357;49.900;8.208;2023-06-22T03:56:35;21.80;99.90
18456;DHT22;9357;49.900;8.208;2023-06-22T03:58:08;21.70;99.90
18456;DHT22;9357;49.900;8.208;2023-06-22T03:59:41;21.70;99.90
18456;DHT22;9357;49.900;8.208;2023-06-22T04:01:14;21.60;99.90
18456;DHT22;9357;49.900;8.208;2023-06-22T04:02:48;21.70;99.90
18456;DHT22;9357;49.900;8.208;2023-06-22T04:04:21;21.70;99.90
18456;DHT22;9357;49.900;8.208;2023-06-22T04:05:54;21.70;99.90
18456;DHT22;9357;49.900;8.208;2023-06-22T04:07:27;21.70;99.90
18456;DHT22;9357;49.900;8.208;2023-06-22T04:09:00;21.70;99.90
18456;DHT22;9357;49.900;8.208;2023-06-22T04:10:32;21.70;99.90
18456;DHT22;9357;49.900;8.208;2023-06-22T04:12:06;21.70;99.90
18456;DHT22;9357;49.900;8.208;2023-06-22T04:13:39;21.70;99.90
18456;DHT22;9357;49.900;8.208;2023-06-22T04:15:11;21.60;99.90
18456;DHT22;9357;49.900;8.208;2023-06-22T04:16:44;21.60;99.90
18456;DHT22;9357;49.900;8.208;2023-06-22T04:18:17;21.60;99.90
18456;DHT22;9357;49.900;8.208;2023-06-22T04:19:50;21.60;99.90
18456;DHT22;9357;49.900;8.208;2023-06-22T04:21:24;21.50;99.90
18456;DHT22;9357;49.900;8.208;2023-06-22T04:22:56;21.50;99.90
18456;DHT22;9357;49.900;8.208;2023-06-22T04:24:28;21.50;99.90
18456;DHT22;9357;49.900;8.208;2023-06-22T04:26:01;21.50;99.90
18456;DHT22;9357;49.900;8.208;2023-06-22T04:27:34;21.50;99.90
18456;DHT22;9357;49.900;8.208;2023-06-22T04:29:09;21.50;99.90
18456;DHT22;9357;49.900;8.208;2023-06-22T04:30:42;21.50;99.90
18456;DHT22;9357;49.900;8.208;2023-06-22T04:32:18;21.50;99.90
18456;DHT22;9357;49.900;8.208;2023-06-22T04:33:51;21.50;99.90
18456;DHT22;9357;49.900;8.208;2023-06-22T04:35:24;21.50;99.90
18456;DHT22;9357;49.900;8.208;2023-06-22T04:36:58;21.50;99.90
18456;DHT22;9357;49.900;8.208;2023-06-22T04:38:31;21.50;99.90
18456;DHT22;9357;49.900;8.208;2023-06-22T04:40:06;21.60;99.90
18456;DHT22;9357;49.900;8.208;2023-06-22T04:41:40;21.60;99.90
18456;DHT22;9357;49.900;8.208;2023-06-22T04:43:16;21.60;99.90
18456;DHT22;9357;49.900;8.208;2023-06-22T04:44:49;21.60;99.90
18456;DHT22;9357;49.900;8.208;2023-06-22T04:46:22;21.60;99.90
18456;DHT22;9357;49.900;8.208;2023-06-22T04:47:54;21.50;99.90
18456;DHT22;9357;49.900;8.208;2023-06-22T04:49:28;21.50;99.90
18456;DHT22;9357;49.900;8.208;2023-06-22T04:51:04;21.50;99.90
18456;DHT22;9357;49.900;8.208;2023-06-22T04:52:38;21.50;99.90
18456;DHT22;9357;49.900;8.208;2023-06-22T04:54:11;21.40;99.90
18456;DHT22;9357;49.900;8.208;2023-06-22T04:55:44;21.40;99.90
18456;DHT22;9357;49.900;8.208;2023-06-22T04:57:18;21.40;99.90
18456;DHT22;9357;49.900;8.208;2023-06-22T04:58:50;21.40;99.90
18456;DHT22;9357;49.900;8.208;2023-06-22T05:00:23;21.40;99.90
18456;DHT22;9357;49.900;8.208;2023-06-22T05:01:57;21.40;99.90
18456;DHT22;9357;49.900;8.208;2023-06-22T05:03:29;21.30;99.90
18456;DHT22;9357;49.900;8.208;2023-06-22T05:05:03;21.30;99.90
18456;DHT22;9357;49.900;8.208;2023-06-22T05:06:38;21.30;99.90
18456;DHT22;9357;49.900;8.208;2023-06-22T05:08:13;21.30;99.90
18456;DHT22;9357;49.900;8.208;2023-06-22T05:09:46;21.30;99.90
18456;DHT22;9357;49.900;8.208;2023-06-22T05:11:19;21.30;99.90
18456;DHT22;9357;49.900;8.208;2023-06-22T05:12:52;21.30;99.90
18456;DHT22;9357;49.900;8.208;2023-06-22T05:14:25;21.30;99.90
18456;DHT22;9357;49.900;8.208;2023-06-22T05:15:57;21.30;99.90
18456;DHT22;9357;49.900;8.208;2023-06-22T05:17:33;21.40;99.90
18456;DHT22;9357;49.900;8.208;2023-06-22T05:19:06;21.40;99.90
18456;DHT22;9357;49.900;8.208;2023-06-22T05:20:39;21.40;99.90
18456;DHT22;9357;49.900;8.208;2023-06-22T05:22:11;21.40;99.90
18456;DHT22;9357;49.900;8.208;2023-06-22T05:23:46;21.40;99.90
18456;DHT22;9357;49.900;8.208;2023-06-22T05:25:19;21.50;99.90
18456;DHT22;9357;49.900;8.208;2023-06-22T05:26:52;21.50;99.90
18456;DHT22;9357;49.900;8.208;2023-06-22T05:28:24;21.60;99.90
18456;DHT22;9357;49.900;8.208;2023-06-22T05:29:57;21.60;99.90
18456;DHT22;9357;49.900;8.208;2023-06-22T05:31:30;21.70;99.90
18456;DHT22;9357;49.900;8.208;2023-06-22T05:33:03;21.70;99.90
18456;DHT22;9357;49.900;8.208;2023-06-22T05:34:35;21.70;99.90
18456;DHT22;9357;49.900;8.208;2023-06-22T05:36:08;21.80;99.90
18456;DHT22;9357;49.900;8.208;2023-06-22T05:37:41;21.90;99.90
18456;DHT22;9357;49.900;8.208;2023-06-22T05:39:15;21.90;99.90
18456;DHT22;9357;49.900;8.208;2023-06-22T05:40:48;21.90;99.90
18456;DHT22;9357;49.900;8.208;2023-06-22T05:42:21;22.00;99.90
18456;DHT22;9357;49.900;8.208;2023-06-22T05:43:54;22.00;99.90
18456;DHT22;9357;49.900;8.208;2023-06-22T05:45:26;22.10;99.90
18456;DHT22;9357;49.900;8.208;2023-06-22T05:46:59;22.10;99.90
18456;DHT22;9357;49.900;8.208;2023-06-22T05:48:32;22.20;99.90
18456;DHT22;9357;49.900;8.208;2023-06-22T05:50:06;22.20;99.90
18456;DHT22;9357;49.900;8.208;2023-06-22T05:51:43;22.30;99.90
18456;DHT22;9357;49.900;8.208;2023-06-22T05:53:16;22.40;99.90
18456;DHT22;9357;49.900;8.208;2023-06-22T05:54:50;22.40;99.90
18456;DHT22;9357;49.900;8.208;2023-06-22T05:56:22;22.50;99.90
18456;DHT22;9357;49.900;8.208;2023-06-22T05:57:55;22.50;99.90
18456;DHT22;9357;49.900;8.208;2023-06-22T05:59:28;22.60;99.90
18456;DHT22;9357;49.900;8.208;2023-06-22T06:01:00;22.60;99.90
18456;DHT22;9357;49.900;8.208;2023-06-22T06:02:33;22.70;99.90
18456;DHT22;9357;49.900;8.208;2023-06-22T06:04:07;22.80;99.90
18456;DHT22;9357;49.900;8.208;2023-06-22T06:05:40;22.80;99.90
18456;DHT22;9357;49.900;8.208;2023-06-22T06:07:13;22.90;99.90
18456;DHT22;9357;49.900;8.208;2023-06-22T06:08:46;22.90;99.90
18456;DHT22;9357;49.900;8.208;2023-06-22T06:10:20;23.00;99.90
18456;DHT22;9357;49.900;8.208;2023-06-22T06:11:53;23.00;99.90
18456;DHT22;9357;49.900;8.208;2023-06-22T06:13:26;23.10;99.90
18456;DHT22;9357;49.900;8.208;2023-06-22T06:14:58;23.20;99.90
18456;DHT22;9357;49.900;8.208;2023-06-22T06:16:31;23.30;99.90
18456;DHT22;9357;49.900;8.208;2023-06-22T06:18:04;23.40;99.90
18456;DHT22;9357;49.900;8.208;2023-06-22T06:19:38;23.40;99.90
18456;DHT22;9357;49.900;8.208;2023-06-22T06:21:11;23.40;99.90
18456;DHT22;9357;49.900;8.208;2023-06-22T06:22:43;23.50;99.90
18456;DHT22;9357;49.900;8.208;2023-06-22T06:24:16;23.50;99.90
18456;DHT22;9357;49.900;8.208;2023-06-22T06:25:50;23.50;99.90
18456;DHT22;9357;49.900;8.208;2023-06-22T06:27:23;23.60;99.90
18456;DHT22;9357;49.900;8.208;2023-06-22T06:29:01;23.60;99.90
18456;DHT22;9357;49.900;8.208;2023-06-22T06:30:34;23.80;99.90
18456;DHT22;9357;49.900;8.208;2023-06-22T06:32:08;23.80;99.90
18456;DHT22;9357;49.900;8.208;2023-06-22T06:33:41;23.80;99.90
18456;DHT22;9357;49.900;8.208;2023-06-22T06:35:15;23.90;99.90
18456;DHT22;9357;49.900;8.208;2023-06-22T06:36:48;24.00;99.90
18456;DHT22;9357;49.900;8.208;2023-06-22T06:38:21;24.10;99.90
18456;DHT22;9357;49.900;8.208;2023-06-22T06:39:54;24.30;99.90
18456;DHT22;9357;49.900;8.208;2023-06-22T06:41:28;24.40;99.90
18456;DHT22;9357;49.900;8.208;2023-06-22T06:43:00;24.50;99.90
18456;DHT22;9357;49.900;8.208;2023-06-22T06:44:33;24.60;99.90
18456;DHT22;9357;49.900;8.208;2023-06-22T06:46:06;24.70;99.90
18456;DHT22;9357;49.900;8.208;2023-06-22T06:47:39;24.80;99.90
18456;DHT22;9357;49.900;8.208;2023-06-22T06:49:12;24.90;99.90
18456;DHT22;9357;49.900;8.208;2023-06-22T06:50:45;25.00;99.90
18456;DHT22;9357;49.900;8.208;2023-06-22T06:52:16;25.00;99.90
18456;DHT22;9357;49.900;8.208;2023-06-22T06:53:51;25.00;99.90
18456;DHT22;9357;49.900;8.208;2023-06-22T06:55:23;25.00;99.90
18456;DHT22;9357;49.900;8.208;2023-06-22T06:56:58;25.00;99.90
18456;DHT22;9357;49.900;8.208;2023-06-22T06:58:31;25.10;99.90
18456;DHT22;9357;49.900;8.208;2023-06-22T07:00:05;25.10;99.90
18456;DHT22;9357;49.900;8.208;2023-06-22T07:01:42;25.10;99.90
18456;DHT22;9357;49.900;8.208;2023-06-22T07:03:16;25.20;99.90
18456;DHT22;9357;49.900;8.208;2023-06-22T07:04:49;25.40;99.90
18456;DHT22;9357;49.900;8.208;2023-06-22T07:06:22;25.60;99.90
18456;DHT22;9357;49.900;8.208;2023-06-22T07:07:54;25.80;99.90
18456;DHT22;9357;49.900;8.208;2023-06-22T07:09:27;26.00;99.90
18456;DHT22;9357;49.900;8.208;2023-06-22T07:11:00;26.20;99.90
18456;DHT22;9357;49.900;8.208;2023-06-22T07:12:34;26.40;99.90
18456;DHT22;9357;49.900;8.208;2023-06-22T07:14:07;26.50;99.90
18456;DHT22;9357;49.900;8.208;2023-06-22T07:15:40;26.60;99.90
18456;DHT22;9357;49.900;8.208;2023-06-22T07:17:13;26.70;99.90
18456;DHT22;9357;49.900;8.208;2023-06-22T07:18:46;26.90;99.90
18456;DHT22;9357;49.900;8.208;2023-06-22T07:20:19;27.10;99.90
18456;DHT22;9357;49.900;8.208;2023-06-22T07:21:52;27.20;99.90
18456;DHT22;9357;49.900;8.208;2023-06-22T07:23:25;27.30;99.90
18456;DHT22;9357;49.900;8.208;2023-06-22T07:24:58;27.30;99.90
18456;DHT22;9357;49.900;8.208;2023-06-22T07:26:30;27.40;99.90
18456;DHT22;9357;49.900;8.208;2023-06-22T07:28:06;27.60;99.90
18456;DHT22;9357;49.900;8.208;2023-06-22T07:29:39;27.80;99.90
18456;DHT22;9357;49.900;8.208;2023-06-22T07:31:13;27.90;99.90
18456;DHT22;9357;49.900;8.208;2023-06-22T07:32:46;27.90;99.90
18456;DHT22;9357;49.900;8.208;2023-06-22T07:34:19;28.00;99.90
18456;DHT22;9357;49.900;8.208;2023-06-22T07:35:52;28.10;99.90
18456;DHT22;9357;49.900;8.208;2023-06-22T07:37:24;28.10;99.90
18456;DHT22;9357;49.900;8.208;2023-06-22T07:38:58;28.20;99.90
18456;DHT22;9357;49.900;8.208;2023-06-22T07:40:31;28.30;99.90
18456;DHT22;9357;49.900;8.208;2023-06-22T07:42:05;28.30;99.90
18456;DHT22;9357;49.900;8.208;2023-06-22T07:43:39;28.40;99.90
18456;DHT22;9357;49.900;8.208;2023-06-22T07:45:12;28.50;99.90
18456;DHT22;9357;49.900;8.208;2023-06-22T07:46:44;28.50;99.90
18456;DHT22;9357;49.900;8.208;2023-06-22T07:48:20;28.50;99.90
18456;DHT22;9357;49.900;8.208;2023-06-22T07:49:52;28.50;99.90
18456;DHT22;9357;49.900;8.208;2023-06-22T07:51:26;28.40;99.90
18456;DHT22;9357;49.900;8.208;2023-06-22T07:52:59;28.40;99.90
18456;DHT22;9357;49.900;8.208;2023-06-22T07:54:31;28.40;99.90
18456;DHT22;9357;49.900;8.208;2023-06-22T07:56:04;28.50;99.90
18456;DHT22;9357;49.900;8.208;2023-06-22T07:57:38;28.50;99.90
18456;DHT22;9357;49.900;8.208;2023-06-22T07:59:14;28.70;99.90
18456;DHT22;9357;49.900;8.208;2023-06-22T08:00:47;28.80;99.90
18456;DHT22;9357;49.900;8.208;2023-06-22T08:02:20;28.90;99.90
18456;DHT22;9357;49.900;8.208;2023-06-22T08:03:53;28.80;99.90
18456;DHT22;9357;49.900;8.208;2023-06-22T08:05:26;28.70;99.90
18456;DHT22;9357;49.900;8.208;2023-06-22T08:06:59;28.80;99.90
18456;DHT22;9357;49.900;8.208;2023-06-22T08:08:32;28.80;99.90
18456;DHT22;9357;49.900;8.208;2023-06-22T08:10:06;28.90;99.90
18456;DHT22;9357;49.900;8.208;2023-06-22T08:11:38;29.00;99.90
18456;DHT22;9357;49.900;8.208;2023-06-22T08:13:11;29.00;99.90
18456;DHT22;9357;49.900;8.208;2023-06-22T08:14:45;28.90;99.90
18456;DHT22;9357;49.900;8.208;2023-06-22T08:16:18;28.90;99.90
18456;DHT22;9357;49.900;8.208;2023-06-22T08:17:51;29.00;99.90
18456;DHT22;9357;49.900;8.208;2023-06-22T08:19:24;29.00;99.90
18456;DHT22;9357;49.900;8.208;2023-06-22T08:20:57;29.10;99.90
18456;DHT22;9357;49.900;8.208;2023-06-22T08:22:30;29.10;99.90
18456;DHT22;9357;49.900;8.208;2023-06-22T08:24:05;29.00;99.90
18456;DHT22;9357;49.900;8.208;2023-06-22T08:25:38;29.00;99.90
18456;DHT22;9357;49.900;8.208;2023-06-22T08:27:11;28.90;99.90
18456;DHT22;9357;49.900;8.208;2023-06-22T08:28:44;28.90;99.90
18456;DHT22;9357;49.900;8.208;2023-06-22T08:30:20;29.00;99.90
18456;DHT22;9357;49.900;8.208;2023-06-22T08:31:53;29.00;99.90
18456;DHT22;9357;49.900;8.208;2023-06-22T08:33:26;29.00;99.90
18456;DHT22;9357;49.900;8.208;2023-06-22T08:35:02;29.00;99.90
18456;DHT22;9357;49.900;8.208;2023-06-22T08:36:35;29.20;99.90
18456;DHT22;9357;49.900;8.208;2023-06-22T08:38:13;29.30;99.90
18456;DHT22;9357;49.900;8.208;2023-06-22T08:39:47;29.40;99.90
18456;DHT22;9357;49.900;8.208;2023-06-22T08:41:19;29.40;99.90
18456;DHT22;9357;49.900;8.208;2023-06-22T08:42:52;29.40;99.90
18456;DHT22;9357;49.900;8.208;2023-06-22T08:44:25;29.20;99.90
18456;DHT22;9357;49.900;8.208;2023-06-22T08:45:59;29.20;99.90
18456;DHT22;9357;49.900;8.208;2023-06-22T08:47:34;29.10;99.90
18456;DHT22;9357;49.900;8.208;2023-06-22T08:49:07;29.10;99.90
18456;DHT22;9357;49.900;8.208;2023-06-22T08:50:41;29.00;99.90
18456;DHT22;9357;49.900;8.208;2023-06-22T08:52:14;29.00;99.90
18456;DHT22;9357;49.900;8.208;2023-06-22T08:53:46;29.10;99.90
18456;DHT22;9357;49.900;8.208;2023-06-22T08:55:19;29.10;99.90
18456;DHT22;9357;49.900;8.208;2023-06-22T08:56:52;29.10;99.90
18456;DHT22;9357;49.900;8.208;2023-06-22T08:58:25;29.10;99.90
18456;DHT22;9357;49.900;8.208;2023-06-22T08:59:57;29.10;99.90
18456;DHT22;9357;49.900;8.208;2023-06-22T09:01:32;29.20;99.90
18456;DHT22;9357;49.900;8.208;2023-06-22T09:03:05;29.30;99.90
18456;DHT22;9357;49.900;8.208;2023-06-22T09:04:38;29.40;99.90
18456;DHT22;9357;49.900;8.208;2023-06-22T09:06:11;29.50;99.90
18456;DHT22;9357;49.900;8.208;2023-06-22T09:07:46;29.70;99.90
18456;DHT22;9357;49.900;8.208;2023-06-22T09:09:18;29.70;99.90
18456;DHT22;9357;49.900;8.208;2023-06-22T09:10:51;29.80;99.90
18456;DHT22;9357;49.900;8.208;2023-06-22T09:12:24;29.90;99.90
18456;DHT22;9357;49.900;8.208;2023-06-22T09:13:58;29.90;99.90
18456;DHT22;9357;49.900;8.208;2023-06-22T09:15:31;29.80;99.90
18456;DHT22;9357;49.900;8.208;2023-06-22T09:17:06;29.60;99.90
18456;DHT22;9357;49.900;8.208;2023-06-22T09:18:38;29.60;99.90
18456;DHT22;9357;49.900;8.208;2023-06-22T09:20:11;29.60;99.90
18456;DHT22;9357;49.900;8.208;2023-06-22T09:21:44;29.60;99.90
18456;DHT22;9357;49.900;8.208;2023-06-22T09:23:17;29.70;99.90
18456;DHT22;9357;49.900;8.208;2023-06-22T09:24:49;29.70;99.90
18456;DHT22;9357;49.900;8.208;2023-06-22T09:26:22;29.80;99.90
18456;DHT22;9357;49.900;8.208;2023-06-22T09:27:55;29.80;99.90
18456;DHT22;9357;49.900;8.208;2023-06-22T09:29:28;29.80;99.90
18456;DHT22;9357;49.900;8.208;2023-06-22T09:31:00;29.80;99.90
18456;DHT22;9357;49.900;8.208;2023-06-22T09:32:35;29.80;99.90
18456;DHT22;9357;49.900;8.208;2023-06-22T09:34:07;29.80;99.90
18456;DHT22;9357;49.900;8.208;2023-06-22T09:35:40;29.80;99.90
18456;DHT22;9357;49.900;8.208;2023-06-22T09:37:13;29.70;99.90
18456;DHT22;9357;49.900;8.208;2023-06-22T09:38:46;29.70;99.90
18456;DHT22;9357;49.900;8.208;2023-06-22T09:40:18;29.70;99.90
18456;DHT22;9357;49.900;8.208;2023-06-22T09:41:51;29.70;99.90
18456;DHT22;9357;49.900;8.208;2023-06-22T09:43:24;29.70;99.90
18456;DHT22;9357;49.900;8.208;2023-06-22T09:44:57;29.70;99.90
18456;DHT22;9357;49.900;8.208;2023-06-22T09:46:29;29.50;99.90
18456;DHT22;9357;49.900;8.208;2023-06-22T09:48:04;29.40;99.90
18456;DHT22;9357;49.900;8.208;2023-06-22T09:49:37;29.30;99.90
18456;DHT22;9357;49.900;8.208;2023-06-22T09:51:18;29.30;99.90
18456;DHT22;9357;49.900;8.208;2023-06-22T09:52:52;29.40;99.90
18456;DHT22;9357;49.900;8.208;2023-06-22T09:54:26;29.50;99.90
18456;DHT22;9357;49.900;8.208;2023-06-22T09:55:59;29.60;99.90
18456;DHT22;9357;49.900;8.208;2023-06-22T09:57:32;29.60;99.90
18456;DHT22;9357;49.900;8.208;2023-06-22T09:59:05;29.60;99.90
18456;DHT22;9357;49.900;8.208;2023-06-22T10:00:41;29.60;99.90